Aviation Digital Data Service (ADDS)

Output produced by TAFs form (0648 UTC 17 January 2017)
found at http://aviationweather.gov/adds/tafs/
 
KFMN 170543Z 1706/1806 VRB04KT P6SM VCSH SCT008 OVC015 
     TEMPO 1706/1708 4SM -SN BR BKN008 
     FM170800 VRB04KT P6SM OVC010 
     FM171200 08005KT 3/4SM BR OVC004 
     FM171600 10005KT P6SM SCT010 BKN040 
     FM172000 28006KT P6SM BKN050